Time;durP1;ratioP1;P1;durP2;ratioP2;P2;SDS_P1;SDS_P2;PMS_P1;PMS_P2;Temp;Humidity;BMP_temperature;BMP_pressure;BME280_temperature;BME280_humidity;BME280_pressure;Samples;Min_cycle;Max_cycle;Signal;HPM_P1;HPM_P2
2023/02/02 00:00:17;;;;;;;13.13;3.10;;;;;;;3.43;100.00;96420.53;5089155;28;24446;-72
2023/02/02 00:02:44;;;;;;;10.52;2.85;;;;;;;3.41;100.00;96404.34;5098232;28;24445;-73
2023/02/02 00:05:11;;;;;;;9.68;2.72;;;;;;;3.53;100.00;96409.19;5091723;28;24445;-73
2023/02/02 00:07:37;;;;;;;11.13;2.77;;;;;;;3.53;100.00;96410.94;5098996;28;24870;-73
2023/02/02 00:10:04;;;;;;;10.33;3.00;;;;;;;3.54;100.00;96413.44;5083565;28;24812;-74
2023/02/02 00:12:32;;;;;;;12.15;3.10;;;;;;;3.49;100.00;96402.47;5084773;28;24789;-73
2023/02/02 00:14:59;;;;;;;15.05;2.83;;;;;;;3.50;100.00;96409.28;5093030;28;24991;-73
2023/02/02 00:17:25;;;;;;;11.07;2.92;;;;;;;3.56;100.00;96406.56;5094223;28;24442;-73
2023/02/02 00:19:52;;;;;;;10.02;2.90;;;;;;;3.53;100.00;96398.13;5103851;28;24437;-73
2023/02/02 00:22:18;;;;;;;7.40;2.35;;;;;;;3.53;100.00;96416.06;5090542;28;24999;-74
2023/02/02 00:24:44;;;;;;;10.93;2.92;;;;;;;3.44;100.00;96406.00;5095473;28;24824;-73
2023/02/02 00:27:11;;;;;;;8.65;2.60;;;;;;;3.43;100.00;96415.41;5094214;28;24959;-73
2023/02/02 00:29:39;;;;;;;8.80;2.63;;;;;;;3.49;100.00;96409.31;5098005;28;25007;-73
2023/02/02 00:32:06;;;;;;;10.40;2.38;;;;;;;3.44;100.00;96419.66;5105209;28;24518;-73
2023/02/02 00:34:32;;;;;;;9.48;2.10;;;;;;;3.50;100.00;96418.69;5099083;28;24458;-74
2023/02/02 00:36:59;;;;;;;10.27;2.50;;;;;;;3.38;100.00;96427.50;5088624;28;24889;-74
2023/02/02 00:39:26;;;;;;;11.68;2.33;;;;;;;3.37;100.00;96423.25;5101019;28;24449;-73
2023/02/02 00:41:52;;;;;;;8.93;2.27;;;;;;;3.35;100.00;96417.34;5092106;28;24469;-73
2023/02/02 00:47:04;;;;;;;7.07;2.55;;;;;;;3.39;100.00;96408.69;5092073;28;24433;-73
2023/02/02 00:49:31;;;;;;;10.55;2.22;;;;;;;3.44;100.00;96414.53;5098148;28;24441;-74
2023/02/02 00:51:59;;;;;;;9.05;2.20;;;;;;;3.40;100.00;96425.72;5097451;28;24430;-74
2023/02/02 00:54:26;;;;;;;10.90;2.20;;;;;;;3.40;100.00;96416.31;5093166;28;24901;-73
2023/02/02 00:56:52;;;;;;;5.97;2.10;;;;;;;3.50;100.00;96416.13;5095630;28;24434;-73
2023/02/02 00:59:19;;;;;;;5.25;1.90;;;;;;;3.44;100.00;96427.34;5093444;28;24442;-73
2023/02/02 01:01:45;;;;;;;5.55;1.75;;;;;;;3.43;100.00;96424.81;5099795;28;24441;-73
2023/02/02 01:04:13;;;;;;;6.63;1.87;;;;;;;3.38;100.00;96422.38;5095372;28;24437;-73
2023/02/02 01:06:41;;;;;;;5.63;1.60;;;;;;;3.38;100.00;96407.03;5094782;28;24437;-73
2023/02/02 01:09:07;;;;;;;7.40;1.80;;;;;;;3.35;100.00;96409.66;5092330;28;24868;-73
2023/02/02 01:11:34;;;;;;;11.95;1.80;;;;;;;3.36;100.00;96413.88;5085446;28;24441;-74
2023/02/02 01:14:00;;;;;;;4.45;1.70;;;;;;;3.25;100.00;96413.31;5091924;28;24467;-73
2023/02/02 01:16:27;;;;;;;11.57;2.10;;;;;;;3.30;100.00;96414.88;5101404;28;24836;-73
2023/02/02 01:18:53;;;;;;;7.13;2.28;;;;;;;3.24;100.00;96412.47;5103694;28;24430;-73
2023/02/02 01:21:22;;;;;;;6.07;1.83;;;;;;;3.28;100.00;96418.34;5089998;28;24470;-73
2023/02/02 01:23:48;;;;;;;8.07;2.33;;;;;;;3.27;100.00;96425.19;5099966;28;24429;-74
2023/02/02 01:26:15;;;;;;;8.47;1.93;;;;;;;3.27;100.00;96425.19;5101563;28;24548;-73
2023/02/02 01:28:42;;;;;;;7.78;2.40;;;;;;;3.28;100.00;96415.78;5101050;28;24437;-74
2023/02/02 01:31:11;;;;;;;8.27;2.15;;;;;;;3.26;100.00;96412.41;5101138;28;24437;-73
2023/02/02 01:33:38;;;;;;;7.50;2.38;;;;;;;3.26;100.00;96410.69;5100082;28;24461;-73
2023/02/02 01:36:08;;;;;;;7.45;2.50;;;;;;;3.26;100.00;96417.53;5084903;28;24434;-73
2023/02/02 01:38:36;;;;;;;10.40;2.75;;;;;;;3.23;100.00;96425.31;5100235;28;25037;-72
2023/02/02 01:41:03;;;;;;;7.03;2.70;;;;;;;3.28;100.00;96414.06;5093844;28;24523;-76
2023/02/02 01:43:51;;;;;;;7.65;2.22;;;;;;;3.25;100.00;96405.63;5098862;28;24438;-73
2023/02/02 01:46:19;;;;;;;10.40;2.20;;;;;;;3.17;100.00;96403.25;5099165;28;25036;-73
2023/02/02 01:48:48;;;;;;;8.27;2.30;;;;;;;3.17;100.00;96398.13;5097669;28;24514;-73
2023/02/02 01:51:18;;;;;;;5.72;2.00;;;;;;;3.11;100.00;96411.91;5102678;28;24442;-75
2023/02/02 01:53:49;;;;;;;6.88;2.10;;;;;;;3.09;100.00;96400.88;5095797;28;24549;-73
2023/02/02 01:56:18;;;;;;;5.95;1.65;;;;;;;3.15;100.00;96393.06;5100216;28;24445;-73
2023/02/02 01:58:46;;;;;;;4.65;1.30;;;;;;;3.18;100.00;96396.41;5100476;28;24449;-74
2023/02/02 02:01:14;;;;;;;4.82;1.40;;;;;;;3.17;100.00;96402.41;5099858;28;24442;-73
2023/02/02 02:03:41;;;;;;;3.75;1.45;;;;;;;3.10;100.00;96405.09;5099490;28;24426;-73
2023/02/02 02:06:11;;;;;;;3.30;1.17;;;;;;;3.14;100.00;96400.75;5098197;28;24437;-73
2023/02/02 02:08:41;;;;;;;4.13;1.25;;;;;;;3.14;100.00;96401.59;5095525;28;24430;-73
2023/02/02 02:11:09;;;;;;;3.50;1.40;;;;;;;3.21;100.00;96404.84;5096076;28;25006;-75
2023/02/02 02:16:36;;;;;;;4.63;1.40;;;;;;;3.14;100.00;96395.63;5098525;28;24549;-76
2023/02/02 02:19:14;;;;;;;5.40;1.65;;;;;;;3.26;100.00;96392.78;5100192;28;24433;-73
2023/02/02 02:28:34;;;;;;;5.82;2.33;;;;;;;3.11;100.00;96393.97;5101711;28;24769;-73
2023/02/02 02:31:30;;;;;;;7.40;2.13;;;;;;;3.12;100.00;96388.00;5088544;28;24422;-73
2023/02/02 02:34:04;;;;;;;6.78;2.00;;;;;;;3.12;100.00;96395.69;5095118;28;24444;-73
2023/02/02 02:36:40;;;;;;;4.22;1.90;;;;;;;3.14;100.00;96393.91;5100941;28;24792;-73
2023/02/02 02:39:15;;;;;;;14.75;2.30;;;;;;;3.17;100.00;96384.50;5103623;28;24418;-72
2023/02/02 02:41:48;;;;;;;7.22;2.05;;;;;;;3.15;100.00;96387.06;5096493;28;24442;-72
2023/02/02 02:44:17;;;;;;;6.63;1.92;;;;;;;3.13;100.00;96391.41;5101929;28;24772;-73
2023/02/02 02:46:45;;;;;;;5.35;1.75;;;;;;;3.20;100.00;96379.31;5100456;28;24430;-72
2023/02/02 02:49:13;;;;;;;5.65;2.08;;;;;;;3.12;100.00;96400.81;5102764;28;24439;-72
2023/02/02 02:51:44;;;;;;;5.45;1.50;;;;;;;3.10;100.00;96378.66;5089105;28;24441;-72
2023/02/02 02:54:12;;;;;;;1.95;0.98;;;;;;;3.16;100.00;96383.66;5099482;28;25190;-73
2023/02/02 02:56:54;;;;;;;3.80;1.40;;;;;;;3.19;100.00;96381.03;5100211;28;24432;-73
2023/02/02 02:59:33;;;;;;;2.42;1.02;;;;;;;3.19;100.00;96398.94;5087321;28;24446;-73
2023/02/02 03:02:15;;;;;;;2.78;1.08;;;;;;;3.16;100.00;96393.91;5097485;28;24433;-73
2023/02/02 03:04:50;;;;;;;4.50;1.20;;;;;;;3.14;100.00;96395.63;5085766;28;24441;-73
2023/02/02 03:07:23;;;;;;;3.13;1.10;;;;;;;3.17;100.00;96400.69;5095438;28;24446;-73
2023/02/02 03:09:54;;;;;;;3.95;1.00;;;;;;;3.19;100.00;96406.63;5082102;28;24445;-73
2023/02/02 03:12:20;;;;;;;3.05;0.90;;;;;;;3.23;100.00;96413.34;5103757;28;24437;-73
2023/02/02 03:14:47;;;;;;;3.60;1.10;;;;;;;3.21;100.00;96421.94;5089441;28;24468;-72
2023/02/02 03:17:13;;;;;;;4.65;1.40;;;;;;;3.20;100.00;96415.97;5098325;28;24465;-73
2023/02/02 03:19:40;;;;;;;5.68;1.50;;;;;;;3.20;100.00;96412.56;5092645;28;24442;-73
2023/02/02 03:22:07;;;;;;;4.28;1.30;;;;;;;3.19;100.00;96423.69;5088219;28;24437;-73
2023/02/02 03:24:34;;;;;;;3.13;1.20;;;;;;;3.17;100.00;96417.75;5099972;28;24966;-73
2023/02/02 03:27:01;;;;;;;3.00;1.17;;;;;;;3.20;100.00;96413.41;5099048;28;25119;-73
2023/02/02 03:29:28;;;;;;;3.67;1.40;;;;;;;3.29;100.00;96412.34;5106557;28;24437;-73
2023/02/02 03:31:54;;;;;;;3.97;1.50;;;;;;;3.37;100.00;96420.69;5104372;28;24452;-73
2023/02/02 03:34:21;;;;;;;9.48;2.05;;;;;;;3.27;100.00;96420.06;5100137;28;24434;-73
2023/02/02 03:36:47;;;;;;;6.22;2.03;;;;;;;3.34;100.00;96416.50;5099257;28;24434;-73
2023/02/02 03:39:15;;;;;;;6.70;2.13;;;;;;;3.23;100.00;96420.19;5100700;28;24438;-73
2023/02/02 03:41:41;;;;;;;6.50;2.10;;;;;;;3.22;100.00;96410.81;5097926;28;24433;-73
2023/02/02 03:44:08;;;;;;;6.72;1.70;;;;;;;3.25;100.00;96403.91;5105371;28;24429;-74
2023/02/02 03:46:34;;;;;;;4.07;1.20;;;;;;;3.29;100.00;96427.72;5094025;28;24425;-73
2023/02/02 03:49:01;;;;;;;5.45;1.50;;;;;;;3.27;100.00;96432.03;5095968;28;24445;-73
2023/02/02 03:51:27;;;;;;;4.18;1.13;;;;;;;3.31;100.00;96414.00;5099772;28;24445;-73
2023/02/02 03:53:53;;;;;;;4.60;1.50;;;;;;;3.31;100.00;96418.28;5100249;28;24437;-72
2023/02/02 03:56:21;;;;;;;6.25;1.50;;;;;;;3.34;100.00;96415.66;5099068;28;24493;-72
2023/02/02 03:58:48;;;;;;;6.67;1.60;;;;;;;3.30;100.00;96420.00;5093479;28;24434;-72
2023/02/02 04:01:14;;;;;;;7.93;2.25;;;;;;;3.31;100.00;96423.41;5097393;28;24438;-73
2023/02/02 04:03:41;;;;;;;7.00;2.35;;;;;;;3.29;100.00;96428.53;5097428;28;24442;-73
2023/02/02 04:06:08;;;;;;;6.53;2.13;;;;;;;3.31;100.00;96421.69;5096111;28;24461;-73
2023/02/02 04:08:35;;;;;;;6.32;1.90;;;;;;;3.33;100.00;96430.16;5095090;28;24974;-74
2023/02/02 04:11:01;;;;;;;6.22;1.75;;;;;;;3.28;100.00;96423.47;5095182;28;24792;-73
2023/02/02 04:13:29;;;;;;;6.18;2.08;;;;;;;3.38;100.00;96427.50;5098297;28;24436;-73
2023/02/02 04:15:57;;;;;;;8.70;1.75;;;;;;;3.40;100.00;96428.28;5086001;28;24507;-73
2023/02/02 04:18:24;;;;;;;7.45;2.00;;;;;;;3.40;100.00;96438.53;5097344;28;24498;-73
2023/02/02 04:20:50;;;;;;;7.55;1.77;;;;;;;3.47;100.00;96439.25;5091424;28;24441;-73
2023/02/02 04:23:17;;;;;;;6.70;1.77;;;;;;;3.38;100.00;96435.19;5094402;28;24784;-72
2023/02/02 04:25:49;;;;;;;5.60;1.83;;;;;;;3.39;100.00;96424.91;5094293;28;24438;-73
2023/02/02 04:28:15;;;;;;;9.65;2.08;;;;;;;3.36;100.00;96435.22;5099442;28;24441;-74
2023/02/02 04:30:43;;;;;;;10.60;2.20;;;;;;;3.39;100.00;96437.69;5101537;28;24429;-73
2023/02/02 04:33:09;;;;;;;6.53;2.13;;;;;;;3.32;100.00;96446.41;5098864;28;24435;-75
2023/02/02 04:35:36;;;;;;;7.82;2.22;;;;;;;3.38;100.00;96438.59;5101582;28;24452;-74
2023/02/02 04:38:02;;;;;;;5.53;1.70;;;;;;;3.42;100.00;96452.16;5100050;28;24789;-73
2023/02/02 04:40:29;;;;;;;11.93;2.30;;;;;;;3.46;100.00;96440.13;5101971;28;24535;-73
2023/02/02 04:42:57;;;;;;;6.90;2.37;;;;;;;3.48;100.00;96454.56;5100149;28;24527;-73
2023/02/02 04:45:23;;;;;;;8.02;2.30;;;;;;;3.45;100.00;96456.34;5100207;28;25153;-73
2023/02/02 04:47:51;;;;;;;6.35;2.15;;;;;;;3.49;100.00;96452.84;5097084;28;24983;-73
2023/02/02 04:50:18;;;;;;;14.23;3.33;;;;;;;3.50;100.00;96452.81;5101390;28;24438;-73
2023/02/02 04:52:44;;;;;;;8.55;2.70;;;;;;;3.44;100.00;96447.81;5102081;28;24438;-73
2023/02/02 04:55:11;;;;;;;6.07;2.30;;;;;;;3.48;100.00;96446.88;5101400;28;24450;-73
2023/02/02 04:57:37;;;;;;;8.07;2.55;;;;;;;3.46;100.00;96446.09;5103738;28;24456;-73
2023/02/02 05:00:05;;;;;;;7.63;2.03;;;;;;;3.53;100.00;96454.47;5090402;28;24441;-73
2023/02/02 05:02:31;;;;;;;7.03;2.25;;;;;;;3.51;100.00;96449.34;5094153;28;24457;-73
2023/02/02 05:04:59;;;;;;;7.30;2.50;;;;;;;3.49;100.00;96453.69;5090283;28;24437;-73
2023/02/02 05:07:25;;;;;;;8.25;2.15;;;;;;;3.48;100.00;96462.22;5096898;28;24993;-73
2023/02/02 05:09:52;;;;;;;5.07;2.15;;;;;;;3.47;100.00;96460.56;5093961;28;24430;-72
2023/02/02 05:12:18;;;;;;;10.00;2.35;;;;;;;3.53;100.00;96457.03;5103114;28;24442;-73
2023/02/02 05:14:45;;;;;;;8.00;2.20;;;;;;;3.44;100.00;96467.47;5099962;28;24525;-76
2023/02/02 05:17:11;;;;;;;6.70;2.13;;;;;;;3.48;100.00;96469.91;5088440;28;24488;-74
2023/02/02 05:19:38;;;;;;;6.90;2.17;;;;;;;3.51;100.00;96476.69;5104154;28;24441;-76
2023/02/02 05:22:05;;;;;;;7.10;2.35;;;;;;;3.56;100.00;96477.41;5093442;28;24432;-74
2023/02/02 05:24:32;;;;;;;13.63;2.33;;;;;;;3.49;100.00;96471.63;5093112;28;24449;-75
2023/02/02 05:26:59;;;;;;;7.80;2.70;;;;;;;3.45;100.00;96487.06;5095564;28;25006;-75
2023/02/02 05:29:26;;;;;;;13.02;2.95;;;;;;;3.46;100.00;96476.81;5104134;28;25586;-75
2023/02/02 05:31:52;;;;;;;10.60;2.70;;;;;;;3.47;100.00;96483.59;5095473;28;24426;-75
2023/02/02 05:34:19;;;;;;;9.48;2.90;;;;;;;3.48;100.00;96484.44;5095471;28;24477;-76
2023/02/02 05:36:45;;;;;;;9.60;2.83;;;;;;;3.46;100.00;96481.94;5080226;28;24537;-75
2023/02/02 05:39:13;;;;;;;7.77;3.00;;;;;;;3.46;100.00;96489.63;5106870;28;24437;-75
2023/02/02 05:41:40;;;;;;;12.90;2.78;;;;;;;3.47;100.00;96496.41;5083348;28;24438;-75
2023/02/02 05:44:07;;;;;;;8.63;2.85;;;;;;;3.54;100.00;96504.81;5103535;28;24983;-75
2023/02/02 05:46:33;;;;;;;12.27;3.20;;;;;;;3.51;100.00;96507.44;5103224;28;24932;-75
2023/02/02 05:49:03;;;;;;;10.90;3.10;;;;;;;3.49;100.00;96504.06;5090928;28;24429;-75
2023/02/02 05:51:33;;;;;;;8.60;2.67;;;;;;;3.58;100.00;96512.38;5096014;28;24433;-76
2023/02/02 05:54:00;;;;;;;11.30;3.65;;;;;;;3.50;100.00;96508.31;5092756;28;24468;-76
2023/02/02 05:56:28;;;;;;;23.20;3.22;;;;;;;3.50;100.00;96514.28;5098611;28;24466;-77
2023/02/02 05:58:54;;;;;;;8.60;3.17;;;;;;;3.51;100.00;96515.94;5096286;28;24441;-76
2023/02/02 06:01:21;;;;;;;15.05;3.20;;;;;;;3.46;100.00;96520.34;5103806;28;24437;-76
2023/02/02 06:03:47;;;;;;;10.43;3.08;;;;;;;3.46;100.00;96510.09;5094404;28;24439;-76
2023/02/02 06:06:14;;;;;;;9.65;3.30;;;;;;;3.56;100.00;96528.63;5097345;28;24433;-76
2023/02/02 06:08:40;;;;;;;9.02;2.63;;;;;;;3.45;100.00;96531.47;5090527;28;24998;-74
2023/02/02 06:11:10;;;;;;;11.98;3.05;;;;;;;3.40;100.00;96523.88;5106940;28;24438;-76
2023/02/02 06:13:38;;;;;;;9.13;2.88;;;;;;;3.37;100.00;96523.97;5103964;28;24804;-76
2023/02/02 06:16:07;;;;;;;8.70;2.95;;;;;;;3.48;100.00;96523.69;5099163;28;22489;-78
2023/02/02 06:18:35;;;;;;;8.15;2.72;;;;;;;3.47;100.00;96528.88;5104424;28;24438;-76
2023/02/02 06:21:02;;;;;;;7.97;2.53;;;;;;;3.42;100.00;96516.16;5096741;28;25010;-76
2023/02/02 06:23:30;;;;;;;7.07;2.08;;;;;;;3.49;100.00;96520.28;5105157;28;24430;-76
2023/02/02 06:25:56;;;;;;;4.97;1.85;;;;;;;3.44;100.00;96531.50;5101163;28;24426;-76
2023/02/02 06:28:23;;;;;;;5.82;1.70;;;;;;;3.48;100.00;96533.09;5102010;28;24434;-76
2023/02/02 06:30:50;;;;;;;11.65;2.17;;;;;;;3.49;100.00;96535.66;5100484;28;25382;-76
2023/02/02 06:33:17;;;;;;;4.00;1.67;;;;;;;3.52;100.00;96533.03;5100805;28;24449;-75
2023/02/02 06:35:43;;;;;;;4.30;1.55;;;;;;;3.58;100.00;96529.47;5103893;28;24475;-74
2023/02/02 06:38:10;;;;;;;3.20;1.17;;;;;;;3.58;100.00;96543.09;5105375;28;24449;-76
2023/02/02 06:40:37;;;;;;;3.97;1.20;;;;;;;3.54;100.00;96538.09;5103951;28;24487;-76
2023/02/02 06:43:04;;;;;;;3.20;1.05;;;;;;;3.49;100.00;96538.22;5097325;28;24991;-76
2023/02/02 06:45:31;;;;;;;4.35;1.60;;;;;;;3.51;100.00;96535.59;5103382;28;24799;-77
2023/02/02 06:48:02;;;;;;;5.25;1.83;;;;;;;3.40;100.00;96538.41;5100037;28;24442;-76
2023/02/02 06:50:29;;;;;;;3.00;1.23;;;;;;;3.36;100.00;96540.19;5103255;28;24509;-76
2023/02/02 06:52:56;;;;;;;4.53;1.52;;;;;;;3.36;100.00;96532.50;5099744;28;24434;-77
2023/02/02 06:55:22;;;;;;;4.22;1.80;;;;;;;3.32;100.00;96530.06;5102182;28;24434;-76
2023/02/02 06:57:49;;;;;;;3.67;1.25;;;;;;;3.39;100.00;96539.28;5095051;28;24461;-76
2023/02/02 07:00:15;;;;;;;7.43;2.15;;;;;;;3.36;100.00;96542.75;5092279;28;24441;-75
2023/02/02 07:02:45;;;;;;;7.68;2.35;;;;;;;3.35;100.00;96541.06;5095162;28;24997;-76
2023/02/02 07:05:12;;;;;;;8.45;2.45;;;;;;;3.34;100.00;96548.78;5089671;28;24975;-75
2023/02/02 07:07:39;;;;;;;15.60;3.35;;;;;;;3.39;100.00;96527.31;5099935;28;24783;-75
2023/02/02 07:10:06;;;;;;;9.23;2.83;;;;;;;3.33;100.00;96526.59;5092988;28;25003;-76
2023/02/02 07:12:32;;;;;;;9.32;2.97;;;;;;;3.30;100.00;96519.00;5095369;28;24959;-77
2023/02/02 07:14:59;;;;;;;8.50;3.17;;;;;;;3.35;100.00;96522.31;5104500;28;24447;-75
2023/02/02 07:17:25;;;;;;;9.57;2.83;;;;;;;3.36;100.00;96512.00;5101458;28;24454;-75
2023/02/02 07:19:52;;;;;;;7.70;2.85;;;;;;;3.33;100.00;96524.03;5101926;28;24444;-74
2023/02/02 07:22:20;;;;;;;7.50;2.65;;;;;;;3.41;100.00;96524.72;5092167;28;24426;-74
2023/02/02 07:24:46;;;;;;;8.23;2.13;;;;;;;3.45;100.00;96525.47;5092048;28;24440;-71
2023/02/02 07:27:13;;;;;;;4.90;1.70;;;;;;;3.40;100.00;96531.56;5103536;28;24444;-77
2023/02/02 07:29:40;;;;;;;5.28;1.88;;;;;;;3.46;100.00;96537.44;5088914;28;24442;-77
2023/02/02 07:32:06;;;;;;;5.37;2.60;;;;;;;3.46;100.00;96534.88;5102757;28;24537;-77
2023/02/02 07:34:33;;;;;;;7.60;2.35;;;;;;;3.49;100.00;96548.44;5095469;28;24796;-76
2023/02/02 07:36:59;;;;;;;9.73;2.90;;;;;;;3.51;100.00;96545.84;5099458;28;24461;-76
2023/02/02 07:39:27;;;;;;;10.63;3.00;;;;;;;3.52;100.00;96547.53;5099339;28;24438;-76
2023/02/02 07:41:54;;;;;;;7.93;2.35;;;;;;;3.52;100.00;96553.50;5091499;28;24442;-76
2023/02/02 07:44:20;;;;;;;8.55;3.20;;;;;;;3.52;100.00;96557.75;5103324;28;24448;-76
2023/02/02 07:46:47;;;;;;;10.63;3.75;;;;;;;3.56;100.00;96567.94;5099714;28;24434;-76
2023/02/02 07:49:14;;;;;;;13.55;5.32;;;;;;;3.52;100.00;96561.19;5103367;28;24433;-76
2023/02/02 07:51:42;;;;;;;8.23;2.83;;;;;;;3.53;100.00;96557.75;5100214;28;24512;-76
2023/02/02 07:54:09;;;;;;;9.23;2.70;;;;;;;3.54;100.00;96564.53;5106959;28;24496;-76
2023/02/02 07:56:38;;;;;;;10.13;3.33;;;;;;;3.56;100.00;96561.94;5097618;28;24476;-74
2023/02/02 07:59:04;;;;;;;10.27;3.47;;;;;;;3.56;100.00;96546.56;5097262;28;24441;-74
2023/02/02 08:01:31;;;;;;;10.50;3.03;;;;;;;3.69;100.00;96552.28;5098919;28;24442;-75
2023/02/02 08:03:59;;;;;;;12.77;2.38;;;;;;;3.61;100.00;96545.59;5098915;28;24445;-74
2023/02/02 08:06:28;;;;;;;9.38;3.08;;;;;;;3.63;100.00;96543.88;5100205;28;24500;-74
2023/02/02 08:08:55;;;;;;;10.40;2.60;;;;;;;3.70;100.00;96547.09;5094411;28;24446;-75
2023/02/02 08:11:23;;;;;;;19.17;2.70;;;;;;;3.69;100.00;96544.59;5100477;28;24516;-75
2023/02/02 08:13:53;;;;;;;7.90;2.00;;;;;;;3.73;100.00;96554.72;5099002;28;24446;-75
2023/02/02 08:16:20;;;;;;;12.00;2.70;;;;;;;3.74;100.00;96550.44;5097444;28;25022;-76
2023/02/02 08:18:47;;;;;;;6.50;2.28;;;;;;;3.73;100.00;96559.00;5100705;28;24440;-74
2023/02/02 08:21:14;;;;;;;7.10;2.60;;;;;;;3.70;100.00;96556.50;5090875;28;24430;-73
2023/02/02 08:23:42;;;;;;;8.60;2.80;;;;;;;3.74;100.00;96563.25;5093043;28;24495;-74
2023/02/02 08:26:10;;;;;;;7.70;2.70;;;;;;;3.72;100.00;96570.13;5094666;28;24435;-75
2023/02/02 08:28:36;;;;;;;5.78;1.90;;;;;;;3.73;100.00;96574.38;5093356;28;24438;-75
2023/02/02 08:31:09;;;;;;;6.63;2.33;;;;;;;3.72;100.00;96570.97;5098457;28;24430;-75
2023/02/02 08:33:37;;;;;;;6.30;2.13;;;;;;;3.73;100.00;96572.66;5082690;28;24961;-77
2023/02/02 08:36:05;;;;;;;5.20;1.85;;;;;;;3.85;100.00;96576.66;5099889;28;24971;-76
2023/02/02 08:38:31;;;;;;;7.57;2.10;;;;;;;3.86;100.00;96588.59;5086477;28;24437;-73
2023/02/02 08:41:05;;;;;;;8.60;2.58;;;;;;;3.89;100.00;96593.63;5096369;28;24437;-73
2023/02/02 08:43:32;;;;;;;10.63;2.88;;;;;;;3.78;100.00;96588.78;5089244;28;24987;-75
2023/02/02 08:45:58;;;;;;;9.25;2.83;;;;;;;3.74;100.00;96594.81;5100518;28;24433;-76
2023/02/02 08:48:26;;;;;;;10.82;2.45;;;;;;;3.76;100.00;96607.63;5097143;28;24441;-75
2023/02/02 08:50:54;;;;;;;9.18;2.50;;;;;;;3.69;100.00;96606.91;5096281;28;24488;-76
2023/02/02 08:53:20;;;;;;;11.18;3.00;;;;;;;3.75;100.00;96609.34;5089126;28;24602;-75
2023/02/02 08:55:47;;;;;;;9.93;2.95;;;;;;;3.80;100.00;96611.78;5099070;28;24433;-75
2023/02/02 08:58:14;;;;;;;12.50;3.15;;;;;;;3.71;100.00;96612.84;5094666;28;24454;-77
2023/02/02 09:00:41;;;;;;;9.88;3.15;;;;;;;3.68;100.00;96627.44;5097100;28;24847;-73
2023/02/02 09:03:07;;;;;;;9.15;3.17;;;;;;;3.69;100.00;96622.28;5099247;28;24449;-76
2023/02/02 09:05:37;;;;;;;7.95;2.92;;;;;;;3.67;100.00;96641.97;5094412;28;24436;-76
2023/02/02 09:08:04;;;;;;;13.17;3.10;;;;;;;3.66;100.00;96649.69;5082491;28;24508;-76
2023/02/02 09:10:31;;;;;;;11.50;2.85;;;;;;;3.66;100.00;96649.69;5102369;28;24437;-75
2023/02/02 09:12:57;;;;;;;10.50;2.85;;;;;;;3.69;100.00;96649.63;5094930;28;24446;-75
2023/02/02 09:15:24;;;;;;;16.85;3.20;;;;;;;3.66;100.00;96637.72;5095980;28;24435;-75
2023/02/02 09:17:50;;;;;;;8.35;2.65;;;;;;;3.79;100.00;96634.00;5093680;28;24449;-75
2023/02/02 09:20:17;;;;;;;12.02;2.70;;;;;;;3.67;100.00;96634.28;5100471;28;24433;-74
2023/02/02 09:22:45;;;;;;;9.00;3.22;;;;;;;3.64;100.00;96640.31;5094838;28;24441;-77
2023/02/02 09:25:11;;;;;;;9.75;3.17;;;;;;;3.72;100.00;96619.66;5101621;28;24438;-75
2023/02/02 09:27:38;;;;;;;8.23;2.75;;;;;;;3.75;100.00;96626.44;5088211;28;24438;-75
2023/02/02 09:30:05;;;;;;;14.75;2.85;;;;;;;3.74;100.00;96637.53;5092212;28;25019;-74
2023/02/02 09:32:31;;;;;;;13.68;3.13;;;;;;;3.67;100.00;96630.88;5101312;28;24433;-75
2023/02/02 09:34:59;;;;;;;9.02;2.53;;;;;;;3.72;100.00;96640.16;5097355;28;24999;-77
2023/02/02 09:37:25;;;;;;;9.65;3.50;;;;;;;3.68;100.00;96640.25;5104255;28;24479;-75
2023/02/02 09:39:53;;;;;;;9.60;2.92;;;;;;;3.69;100.00;96634.25;5097754;28;24441;-75
2023/02/02 09:42:32;;;;;;;9.13;3.50;;;;;;;3.74;100.00;96642.66;5096723;28;24434;-74
2023/02/02 09:45:07;;;;;;;7.50;2.67;;;;;;;3.79;100.00;96651.13;5091883;28;24473;-76
2023/02/02 09:48:00;;;;;;;7.55;2.67;;;;;;;3.71;100.00;96651.28;5088377;28;24429;-75
2023/02/02 09:50:42;;;;;;;9.47;2.73;;;;;;;3.72;100.00;96663.22;5093427;28;24490;-75
2023/02/02 09:53:18;;;;;;;9.45;3.58;;;;;;;3.70;100.00;96651.28;5089414;28;24441;-75
2023/02/02 09:55:50;;;;;;;8.95;3.22;;;;;;;3.73;100.00;96654.63;5098258;28;24437;-75
2023/02/02 09:58:20;;;;;;;9.40;3.10;;;;;;;3.75;100.00;96655.47;5096822;28;24453;-75
2023/02/02 10:00:54;;;;;;;7.00;2.55;;;;;;;3.74;100.00;96670.84;5099191;28;24421;-74
2023/02/02 10:03:24;;;;;;;9.77;3.00;;;;;;;3.82;100.00;96667.25;5100938;28;24449;-74
2023/02/02 10:05:56;;;;;;;9.82;2.75;;;;;;;3.73;100.00;96667.44;5098507;28;24437;-75
2023/02/02 10:08:31;;;;;;;7.80;2.60;;;;;;;3.81;100.00;96682.66;5091299;28;24423;-74
2023/02/02 10:11:01;;;;;;;9.07;3.63;;;;;;;3.81;100.00;96680.94;5101757;28;24453;-73
2023/02/02 10:13:33;;;;;;;7.10;2.65;;;;;;;3.83;100.00;96680.91;5097582;28;24444;-76
2023/02/02 10:16:06;;;;;;;7.87;2.87;;;;;;;3.81;100.00;96682.66;5097208;28;25112;-75
2023/02/02 10:18:42;;;;;;;5.47;2.75;;;;;;;3.88;100.00;96679.09;5092719;28;25121;-74
2023/02/02 10:21:12;;;;;;;5.85;3.25;;;;;;;3.75;100.00;96678.53;5087868;28;24433;-76
2023/02/02 10:23:43;;;;;;;6.53;2.90;;;;;;;3.78;100.00;96672.47;5107737;28;24531;-77
2023/02/02 10:26:17;;;;;;;8.23;3.20;;;;;;;3.80;100.00;96665.59;5098484;28;24616;-77
2023/02/02 10:28:59;;;;;;;8.68;2.50;;;;;;;3.81;100.00;96662.16;5103085;28;24966;-77
2023/02/02 10:31:41;;;;;;;5.82;2.28;;;;;;;3.72;100.00;96670.06;5094075;28;24434;-77
2023/02/02 10:34:15;;;;;;;5.15;2.28;;;;;;;3.72;100.00;96667.50;5104238;28;25263;-77
2023/02/02 10:36:54;;;;;;;14.43;6.53;;;;;;;3.68;100.00;96676.97;5102926;28;24441;-75
2023/02/02 10:39:28;;;;;;;9.13;4.67;;;;;;;3.72;100.00;96683.72;5095042;28;24483;-77
2023/02/02 10:42:06;;;;;;;8.63;4.55;;;;;;;3.70;100.00;96679.47;5094479;28;24430;-78
2023/02/02 10:44:42;;;;;;;9.27;4.22;;;;;;;3.69;100.00;96686.31;5097546;28;24526;-76
2023/02/02 10:47:12;;;;;;;6.50;2.90;;;;;;;3.66;100.00;96693.22;5099523;28;24441;-77
2023/02/02 10:49:40;;;;;;;7.30;2.23;;;;;;;3.69;100.00;96688.88;5102876;28;24511;-77
2023/02/02 10:52:15;;;;;;;7.38;3.00;;;;;;;3.75;100.00;96686.22;5091142;28;24441;-77
2023/02/02 10:54:52;;;;;;;7.45;3.75;;;;;;;3.74;100.00;96687.06;5095729;28;24499;-77
2023/02/02 10:57:32;;;;;;;6.95;2.35;;;;;;;3.78;100.00;96692.97;5105116;28;24525;-77
2023/02/02 11:00:06;;;;;;;7.88;3.78;;;;;;;3.78;100.00;96685.28;5088544;28;24433;-77
2023/02/02 11:02:33;;;;;;;7.25;2.28;;;;;;;3.80;100.00;96692.06;5090407;28;24979;-77
2023/02/02 11:07:44;;;;;;;7.28;2.33;;;;;;;3.78;100.00;96698.09;5092904;28;24954;-77
2023/02/02 11:10:10;;;;;;;8.40;2.60;;;;;;;3.75;100.00;96682.81;5095087;28;24590;-76
2023/02/02 11:12:45;;;;;;;12.35;3.25;;;;;;;3.69;100.00;96686.31;5100880;28;24437;-77
2023/02/02 11:15:24;;;;;;;7.65;2.88;;;;;;;3.79;100.00;96699.78;5091939;28;24449;-77
2023/02/02 11:17:51;;;;;;;7.93;3.15;;;;;;;3.77;100.00;96681.88;5090292;28;24485;-77
2023/02/02 11:20:24;;;;;;;7.57;3.22;;;;;;;3.88;100.00;96681.66;5093447;28;25000;-77
2023/02/02 11:23:00;;;;;;;8.48;3.05;;;;;;;3.87;100.00;96682.53;5097753;28;24842;-77
2023/02/02 11:25:32;;;;;;;6.38;2.70;;;;;;;3.86;100.00;96678.28;5099607;28;24438;-76
2023/02/02 11:28:01;;;;;;;11.25;2.92;;;;;;;3.93;100.00;96677.28;5099006;28;24430;-77
2023/02/02 11:30:32;;;;;;;12.40;2.95;;;;;;;3.98;100.00;96684.88;5102505;28;24437;-77
2023/02/02 11:32:58;;;;;;;6.22;2.33;;;;;;;4.00;100.00;96676.25;5105763;28;24445;-77
2023/02/02 11:35:28;;;;;;;5.93;1.88;;;;;;;4.04;100.00;96683.00;5095535;28;24446;-77
2023/02/02 11:38:08;;;;;;;7.75;2.22;;;;;;;4.03;100.00;96693.28;5101969;28;24885;-76
2023/02/02 11:40:36;;;;;;;8.18;2.25;;;;;;;3.96;100.00;96695.13;5087296;28;24436;-77
2023/02/02 11:43:07;;;;;;;11.75;2.60;;;;;;;3.96;100.00;96684.88;5096331;28;24442;-77
2023/02/02 11:45:36;;;;;;;9.38;2.58;;;;;;;3.99;100.00;96697.63;5086549;28;24425;-77
2023/02/02 11:48:07;;;;;;;6.33;2.07;;;;;;;4.03;100.00;96688.16;5090239;28;24430;-76
2023/02/02 11:50:35;;;;;;;9.87;2.87;;;;;;;4.04;100.00;96687.28;5090936;28;24436;-77
2023/02/02 11:53:01;;;;;;;5.57;2.08;;;;;;;4.10;100.00;96703.38;5098071;28;24429;-77